createdAt,value
2023-02-19T00:01:45.969Z,6.57
2023-02-19T00:04:14.297Z,6.56
2023-02-19T00:06:42.003Z,6.56
2023-02-19T00:09:13.750Z,6.55
2023-02-19T00:11:41.371Z,6.53
2023-02-19T00:14:08.698Z,6.53
2023-02-19T00:16:40.197Z,6.51
2023-02-19T00:19:09.241Z,6.47
2023-02-19T00:21:35.707Z,6.45
2023-02-19T00:24:05.389Z,6.42
2023-02-19T00:26:32.912Z,6.37
2023-02-19T00:29:00.717Z,6.35
2023-02-19T00:31:32.524Z,6.33
2023-02-19T00:34:02.230Z,6.33
2023-02-19T00:36:29.564Z,6.32
2023-02-19T00:38:56.404Z,6.32
2023-02-19T00:41:24.141Z,6.29
2023-02-19T00:44:02.148Z,6.25
2023-02-19T00:46:31.846Z,6.25
2023-02-19T00:48:59.181Z,6.25
2023-02-19T00:51:31.643Z,6.25
2023-02-19T00:53:59.011Z,6.25
2023-02-19T00:56:25.740Z,6.23
2023-02-19T00:58:52.795Z,6.22
2023-02-19T01:01:20.326Z,6.20
2023-02-19T01:03:48.240Z,6.22
2023-02-19T01:06:18.247Z,6.23
2023-02-19T01:08:45.433Z,6.22
2023-02-19T01:11:13.458Z,6.23
2023-02-19T01:13:42.086Z,6.22
2023-02-19T01:16:18.831Z,6.20
2023-02-19T01:18:46.324Z,6.14
2023-02-19T01:21:19.565Z,6.11
2023-02-19T01:23:47.106Z,6.06
2023-02-19T01:26:19.574Z,6.01
2023-02-19T01:28:47.166Z,6.00
2023-02-19T01:31:17.822Z,5.97
2023-02-19T01:33:46.454Z,5.96
2023-02-19T01:36:13.609Z,5.94
2023-02-19T01:38:42.737Z,5.93
2023-02-19T01:41:12.473Z,5.90
2023-02-19T01:44:00.270Z,5.88
2023-02-19T01:46:29.179Z,5.89
2023-02-19T01:49:10.039Z,5.92
2023-02-19T01:51:41.378Z,5.93
2023-02-19T01:54:09.880Z,5.94
2023-02-19T01:56:41.069Z,5.92
2023-02-19T01:59:07.793Z,5.90
2023-02-19T02:01:35.869Z,5.88
2023-02-19T02:04:03.840Z,5.89
2023-02-19T02:06:34.398Z,5.90
2023-02-19T02:09:01.513Z,5.92
2023-02-19T02:11:29.190Z,5.93
2023-02-19T02:13:57.142Z,5.93
2023-02-19T02:16:39.167Z,5.94
2023-02-19T02:19:40.357Z,5.94
2023-02-19T02:22:42.493Z,5.94
2023-02-19T02:25:46.195Z,5.96
2023-02-19T02:28:51.458Z,5.97
2023-02-19T02:31:23.119Z,5.93
2023-02-19T02:34:12.568Z,5.89
2023-02-19T02:36:45.710Z,5.83
2023-02-19T02:39:17.308Z,5.79
2023-02-19T02:41:49.186Z,5.75
2023-02-19T02:44:16.284Z,5.70
2023-02-19T02:46:45.383Z,5.66
2023-02-19T02:49:21.158Z,5.64
2023-02-19T02:51:52.526Z,5.60
2023-02-19T02:54:31.613Z,5.57
2023-02-19T02:56:59.996Z,5.56
2023-02-19T02:59:31.756Z,5.54
2023-02-19T03:02:09.456Z,5.54
2023-02-19T03:04:44.325Z,5.53
2023-02-19T03:07:12.162Z,5.53
2023-02-19T03:09:43.019Z,5.51
2023-02-19T03:12:17.767Z,5.49
2023-02-19T03:14:48.910Z,5.47
2023-02-19T03:17:33.444Z,5.45
2023-02-19T03:20:03.121Z,5.44
2023-02-19T03:22:33.908Z,5.44
2023-02-19T03:25:14.255Z,5.45
2023-02-19T03:27:44.681Z,5.45
2023-02-19T03:30:25.715Z,5.44
2023-02-19T03:32:58.105Z,5.43
2023-02-19T03:35:30.152Z,5.46
2023-02-19T03:38:19.841Z,5.45
2023-02-19T03:41:25.323Z,5.46
2023-02-19T03:44:14.665Z,5.47
2023-02-19T03:46:59.946Z,5.50
2023-02-19T03:49:44.405Z,5.51
2023-02-19T03:52:38.335Z,5.51
2023-02-19T03:55:18.081Z,5.50
2023-02-19T03:58:05.146Z,5.48
2023-02-19T04:00:41.384Z,5.47
2023-02-19T04:03:33.454Z,5.47
2023-02-19T04:06:03.717Z,5.47
2023-02-19T04:08:34.227Z,5.46
2023-02-19T04:11:00.796Z,5.46
2023-02-19T04:13:32.785Z,5.46
2023-02-19T04:16:06.795Z,5.45
2023-02-19T04:18:38.880Z,5.46
2023-02-19T04:21:07.620Z,5.47
2023-02-19T04:23:39.577Z,5.47
2023-02-19T04:26:07.048Z,5.48
2023-02-19T04:28:35.117Z,5.48
2023-02-19T04:31:02.408Z,5.48
2023-02-19T04:33:29.191Z,5.46
2023-02-19T04:35:55.763Z,5.44
2023-02-19T04:38:22.623Z,5.41
2023-02-19T04:40:49.109Z,5.39
2023-02-19T04:43:15.522Z,5.36
2023-02-19T04:45:42.018Z,5.34
2023-02-19T04:48:09.069Z,5.33
2023-02-19T04:50:39.160Z,5.32
2023-02-19T04:53:06.650Z,5.31
2023-02-19T04:55:37.174Z,5.31
2023-02-19T04:58:03.642Z,5.31
2023-02-19T05:00:30.791Z,5.31
2023-02-19T05:02:57.338Z,5.30
2023-02-19T05:05:23.941Z,5.30
2023-02-19T05:07:50.459Z,5.30
2023-02-19T05:10:17.274Z,5.29
2023-02-19T05:12:43.889Z,5.29
2023-02-19T05:15:10.437Z,5.30
2023-02-19T05:17:36.997Z,5.30
2023-02-19T05:20:03.844Z,5.30
2023-02-19T05:22:30.900Z,5.30
2023-02-19T05:24:57.438Z,5.30
2023-02-19T05:27:25.738Z,5.32
2023-02-19T05:29:52.279Z,5.34
2023-02-19T05:32:18.845Z,5.34
2023-02-19T05:34:45.271Z,5.35
2023-02-19T05:37:11.895Z,5.34
2023-02-19T05:39:38.635Z,5.32
2023-02-19T05:42:05.274Z,5.29
2023-02-19T05:44:31.769Z,5.25
2023-02-19T05:46:58.252Z,5.22
2023-02-19T05:49:24.804Z,5.20
2023-02-19T05:51:51.652Z,5.20
2023-02-19T05:54:18.195Z,5.21
2023-02-19T05:56:44.742Z,5.20
2023-02-19T05:59:17.620Z,5.19
2023-02-19T06:01:44.469Z,5.18
2023-02-19T06:04:11.884Z,5.17
2023-02-19T06:06:39.171Z,5.18
2023-02-19T06:09:07.098Z,5.18
2023-02-19T06:11:34.611Z,5.18
2023-02-19T06:14:01.372Z,5.18
2023-02-19T06:16:28.617Z,5.18
2023-02-19T06:18:55.338Z,5.18
2023-02-19T06:21:22.161Z,5.18
2023-02-19T06:23:48.762Z,5.17
2023-02-19T06:26:18.024Z,5.17
2023-02-19T06:28:46.143Z,5.16
2023-02-19T06:31:13.589Z,5.15
2023-02-19T06:33:41.699Z,5.14
2023-02-19T06:36:12.436Z,5.14
2023-02-19T06:38:38.957Z,5.13
2023-02-19T06:41:07.028Z,5.13
2023-02-19T06:43:34.734Z,5.15
2023-02-19T06:46:03.828Z,5.16
2023-02-19T06:48:31.903Z,5.17
2023-02-19T06:50:58.606Z,5.19
2023-02-19T06:53:25.401Z,5.20
2023-02-19T06:56:00.260Z,5.23
2023-02-19T06:58:27.718Z,5.26
2023-02-19T07:00:54.820Z,5.29
2023-02-19T07:03:21.778Z,5.29
2023-02-19T07:05:48.927Z,5.31
2023-02-19T07:08:15.712Z,5.36
2023-02-19T07:10:42.236Z,5.38
2023-02-19T07:13:08.973Z,5.41
2023-02-19T07:15:35.498Z,5.48
2023-02-19T07:18:03.838Z,5.55
2023-02-19T07:20:30.488Z,5.62
2023-02-19T07:22:57.705Z,5.67
2023-02-19T07:25:24.159Z,5.72
2023-02-19T07:27:50.619Z,5.73
2023-02-19T07:30:17.263Z,5.71
2023-02-19T07:32:43.890Z,5.69
2023-02-19T07:35:10.414Z,5.70
2023-02-19T07:37:36.892Z,5.70
2023-02-19T07:40:04.226Z,5.69
2023-02-19T07:42:30.764Z,5.70
2023-02-19T07:45:00.248Z,5.71
2023-02-19T07:47:27.229Z,5.73
2023-02-19T07:49:53.764Z,5.77
2023-02-19T07:52:20.269Z,5.81
2023-02-19T07:54:46.856Z,5.89
2023-02-19T07:57:13.492Z,6.00
2023-02-19T07:59:40.466Z,6.18
2023-02-19T08:02:18.361Z,6.34
2023-02-19T08:04:47.334Z,6.55
2023-02-19T08:07:13.779Z,6.66
2023-02-19T08:09:40.332Z,6.75
2023-02-19T08:12:06.978Z,6.81
2023-02-19T08:14:33.585Z,6.89
2023-02-19T08:17:00.314Z,6.95
2023-02-19T08:19:26.851Z,7.06
2023-02-19T08:21:53.333Z,7.19
2023-02-19T08:24:19.843Z,7.36
2023-02-19T08:26:46.331Z,7.52
2023-02-19T08:29:12.930Z,7.68
2023-02-19T08:31:39.611Z,7.79
2023-02-19T08:34:06.321Z,7.77
2023-02-19T08:36:32.905Z,7.73
2023-02-19T08:38:59.429Z,7.73
2023-02-19T08:41:25.964Z,7.69
2023-02-19T08:43:52.407Z,7.64
2023-02-19T08:46:19.008Z,7.55
2023-02-19T08:48:45.801Z,7.47
2023-02-19T08:51:12.658Z,7.37
2023-02-19T08:53:40.860Z,7.27
2023-02-19T08:56:13.115Z,7.21
2023-02-19T08:58:40.591Z,7.22
2023-02-19T09:01:12.588Z,7.29
2023-02-19T09:03:39.905Z,7.43
2023-02-19T09:06:06.802Z,7.57
2023-02-19T09:08:33.290Z,7.65
2023-02-19T09:11:02.500Z,7.77
2023-02-19T09:13:29.210Z,7.91
2023-02-19T09:15:56.385Z,8.04
2023-02-19T09:18:24.456Z,8.11
2023-02-19T09:20:50.949Z,8.11
2023-02-19T09:23:17.452Z,8.16
2023-02-19T09:25:44.101Z,8.18
2023-02-19T09:28:10.615Z,8.21
2023-02-19T09:30:37.313Z,8.24
2023-02-19T09:33:05.541Z,8.27
2023-02-19T09:35:32.096Z,8.27
2023-02-19T09:38:00.884Z,8.25
2023-02-19T09:40:27.742Z,8.19
2023-02-19T09:42:54.295Z,8.14
2023-02-19T09:45:24.918Z,8.08
2023-02-19T09:47:57.445Z,8.01
2023-02-19T09:50:36.319Z,7.93
2023-02-19T09:53:11.721Z,7.90
2023-02-19T09:55:43.501Z,7.90
2023-02-19T09:58:27.423Z,7.92
2023-02-19T10:00:56.618Z,7.92
2023-02-19T10:03:27.358Z,7.90
2023-02-19T10:05:54.368Z,7.88
2023-02-19T10:08:21.321Z,7.90
2023-02-19T10:10:48.056Z,7.91
2023-02-19T10:13:25.782Z,7.86
2023-02-19T10:15:56.657Z,7.74
2023-02-19T10:18:26.746Z,7.61
2023-02-19T10:20:53.587Z,7.49
2023-02-19T10:23:20.608Z,7.37
2023-02-19T10:25:57.947Z,7.24
2023-02-19T10:28:31.194Z,7.15
2023-02-19T10:31:00.399Z,7.08
2023-02-19T10:33:27.301Z,7.00
2023-02-19T10:35:59.390Z,6.95
2023-02-19T10:38:35.330Z,6.89
2023-02-19T10:41:14.690Z,6.83
2023-02-19T10:43:51.050Z,6.82
2023-02-19T10:46:33.331Z,6.80
2023-02-19T10:49:03.921Z,6.77
2023-02-19T10:51:37.214Z,6.69
2023-02-19T10:54:07.526Z,6.58
2023-02-19T10:56:34.145Z,6.49
2023-02-19T10:59:28.267Z,6.44
2023-02-19T11:02:02.622Z,6.41
2023-02-19T11:04:32.214Z,6.41
2023-02-19T11:06:58.686Z,6.41
2023-02-19T11:09:39.313Z,6.37
2023-02-19T11:12:09.220Z,6.31
2023-02-19T11:14:36.577Z,6.27
2023-02-19T11:17:05.482Z,6.26
2023-02-19T11:19:44.405Z,6.25
2023-02-19T11:22:26.527Z,6.25
2023-02-19T11:24:57.304Z,6.25
2023-02-19T11:27:25.337Z,6.26
2023-02-19T11:29:51.980Z,6.23
2023-02-19T11:32:27.953Z,6.21
2023-02-19T11:35:14.510Z,6.19
2023-02-19T11:38:01.783Z,6.13
2023-02-19T11:40:59.253Z,6.07
2023-02-19T11:43:41.061Z,6.02
2023-02-19T11:46:51.105Z,6.02
2023-02-19T11:49:52.992Z,6.07
2023-02-19T11:52:35.505Z,6.10
2023-02-19T11:55:07.992Z,6.09
2023-02-19T11:57:47.980Z,6.07
2023-02-19T12:00:32.610Z,5.99
2023-02-19T12:03:20.957Z,5.90
2023-02-19T12:06:09.051Z,5.81
2023-02-19T12:08:41.769Z,5.76
2023-02-19T12:11:20.432Z,5.72
2023-02-19T12:14:00.422Z,5.65
2023-02-19T12:16:38.505Z,5.58
2023-02-19T12:19:33.865Z,5.53
2023-02-19T12:22:16.339Z,5.47
2023-02-19T12:24:58.416Z,5.41
2023-02-19T12:27:41.654Z,5.35
2023-02-19T12:30:35.982Z,5.14
2023-02-19T12:33:11.673Z,4.87
2023-02-19T12:35:47.151Z,4.64
2023-02-19T12:38:43.263Z,4.34
2023-02-19T12:41:12.699Z,4.11
2023-02-19T12:43:46.189Z,3.98
2023-02-19T12:46:19.023Z,3.93
2023-02-19T12:49:12.497Z,3.97
2023-02-19T12:52:13.066Z,3.94
2023-02-19T12:54:43.475Z,3.89
2023-02-19T12:57:18.377Z,3.87
2023-02-19T13:00:00.373Z,3.88
2023-02-19T13:02:54.451Z,3.98
2023-02-19T13:05:21.012Z,4.11
2023-02-19T13:08:04.050Z,4.21
2023-02-19T13:10:43.173Z,4.33
2023-02-19T13:13:19.048Z,4.46
2023-02-19T13:15:50.280Z,4.44
2023-02-19T13:18:24.116Z,4.46
2023-02-19T13:20:52.258Z,4.53
2023-02-19T13:23:21.871Z,4.46
2023-02-19T13:26:15.512Z,4.38
2023-02-19T13:28:58.682Z,4.18
2023-02-19T13:32:07.187Z,4.01
2023-02-19T13:35:01.927Z,3.89
2023-02-19T13:37:33.247Z,3.74
2023-02-19T13:40:04.905Z,3.63
2023-02-19T13:42:34.021Z,3.54
2023-02-19T13:45:03.430Z,3.46
2023-02-19T13:47:56.171Z,3.39
2023-02-19T13:50:28.580Z,3.36
2023-02-19T13:52:56.956Z,3.30
2023-02-19T13:55:41.724Z,3.23
2023-02-19T13:58:33.533Z,3.18
2023-02-19T14:01:11.388Z,3.17
2023-02-19T14:04:06.893Z,3.16
2023-02-19T14:07:05.300Z,3.18
2023-02-19T14:09:34.899Z,3.23
2023-02-19T14:12:03.374Z,3.27
2023-02-19T14:14:38.928Z,3.32
2023-02-19T14:17:45.743Z,3.32
2023-02-19T14:20:15.189Z,3.31
2023-02-19T14:22:44.844Z,3.26
2023-02-19T14:25:35.539Z,3.20
2023-02-19T14:28:11.194Z,3.21
2023-02-19T14:31:11.364Z,3.17
2023-02-19T14:33:43.996Z,3.07
2023-02-19T14:36:35.242Z,3.03
2023-02-19T14:39:13.861Z,2.99
2023-02-19T14:41:45.165Z,2.91
2023-02-19T14:44:18.940Z,2.87
2023-02-19T14:47:00.005Z,2.85
2023-02-19T14:49:39.343Z,2.84
2023-02-19T14:52:14.792Z,2.82
2023-02-19T14:54:58.537Z,2.83
2023-02-19T14:57:35.851Z,2.82
2023-02-19T15:00:21.834Z,2.83
2023-02-19T15:02:51.235Z,2.83
2023-02-19T15:05:23.627Z,2.81
2023-02-19T15:07:51.509Z,2.81
2023-02-19T15:10:18.445Z,2.79
2023-02-19T15:12:51.126Z,2.74
2023-02-19T15:15:31.183Z,2.67
2023-02-19T15:18:00.856Z,2.62
2023-02-19T15:20:30.953Z,2.61
2023-02-19T15:22:59.506Z,2.57
2023-02-19T15:25:37.964Z,2.53
2023-02-19T15:28:32.138Z,2.47
2023-02-19T15:30:58.593Z,2.45
2023-02-19T15:33:27.653Z,2.46
2023-02-19T15:35:58.199Z,2.49
2023-02-19T15:38:25.447Z,2.51
2023-02-19T15:40:53.232Z,2.54
2023-02-19T15:43:26.123Z,2.57
2023-02-19T15:45:58.305Z,2.59
2023-02-19T15:48:37.075Z,2.64
2023-02-19T15:51:11.141Z,2.68
2023-02-19T15:53:46.286Z,2.70
2023-02-19T15:56:22.643Z,2.72
2023-02-19T15:58:59.268Z,2.72
2023-02-19T16:01:28.550Z,2.73
2023-02-19T16:03:56.102Z,2.71
2023-02-19T16:06:25.230Z,2.67
2023-02-19T16:08:55.142Z,2.65
2023-02-19T16:11:29.447Z,2.61
2023-02-19T16:14:27.115Z,2.60
2023-02-19T16:16:58.955Z,2.56
2023-02-19T16:19:31.985Z,2.56
2023-02-19T16:21:59.642Z,2.56
2023-02-19T16:24:34.170Z,2.54
2023-02-19T16:27:01.358Z,2.50
2023-02-19T16:29:31.592Z,2.48
2023-02-19T16:32:01.559Z,2.46
2023-02-19T16:34:32.421Z,2.47
2023-02-19T16:36:59.165Z,2.46
2023-02-19T16:39:25.721Z,2.45
2023-02-19T16:42:11.791Z,2.43
2023-02-19T16:44:38.554Z,2.42
2023-02-19T16:47:07.778Z,2.42
2023-02-19T16:49:34.401Z,2.39
2023-02-19T16:52:04.542Z,2.35
2023-02-19T16:54:31.628Z,2.35
2023-02-19T16:56:58.229Z,2.36
2023-02-19T16:59:24.760Z,2.36
2023-02-19T17:01:51.508Z,2.37
2023-02-19T17:04:17.936Z,2.36
2023-02-19T17:06:44.898Z,2.34
2023-02-19T17:09:11.646Z,2.33
2023-02-19T17:11:38.293Z,2.30
2023-02-19T17:14:04.729Z,2.28
2023-02-19T17:16:33.388Z,2.26
2023-02-19T17:18:59.882Z,2.23
2023-02-19T17:21:28.876Z,2.22
2023-02-19T17:23:56.515Z,2.22
2023-02-19T17:26:28.917Z,2.27
2023-02-19T17:28:59.984Z,2.31
2023-02-19T17:31:26.960Z,2.31
2023-02-19T17:33:54.144Z,2.30
2023-02-19T17:36:24.293Z,2.31
2023-02-19T17:38:50.918Z,2.34
2023-02-19T17:41:17.664Z,2.36
2023-02-19T17:43:44.398Z,2.39
2023-02-19T17:46:15.524Z,2.40
2023-02-19T17:48:42.093Z,2.40
2023-02-19T17:51:08.977Z,2.40
2023-02-19T17:53:36.209Z,2.42
2023-02-19T17:56:02.789Z,2.42
2023-02-19T17:58:29.481Z,2.43
2023-02-19T18:00:55.979Z,2.42
2023-02-19T18:03:22.548Z,2.41
2023-02-19T18:05:48.976Z,2.40
2023-02-19T18:08:16.049Z,2.39
2023-02-19T18:10:42.809Z,2.41
2023-02-19T18:13:09.283Z,2.42
2023-02-19T18:15:36.300Z,2.44
2023-02-19T18:18:03.135Z,2.44
2023-02-19T18:20:29.996Z,2.46
2023-02-19T18:22:57.341Z,2.45
2023-02-19T18:25:24.196Z,2.45
2023-02-19T18:27:50.963Z,2.44
2023-02-19T18:30:20.157Z,2.42
2023-02-19T18:32:47.505Z,2.44
2023-02-19T18:35:15.175Z,2.45
2023-02-19T18:37:42.122Z,2.43
2023-02-19T18:40:09.323Z,2.40
2023-02-19T18:42:35.920Z,2.39
2023-02-19T18:45:02.782Z,2.39
2023-02-19T18:47:29.417Z,2.38
2023-02-19T18:49:57.708Z,2.36
2023-02-19T18:52:26.019Z,2.33
2023-02-19T18:54:54.004Z,2.33
2023-02-19T18:57:22.954Z,2.32
2023-02-19T18:59:49.825Z,2.29
2023-02-19T19:02:21.154Z,2.28
2023-02-19T19:04:52.721Z,2.27
2023-02-19T19:07:20.639Z,2.27
2023-02-19T19:09:47.604Z,2.28
2023-02-19T19:12:15.331Z,2.28
2023-02-19T19:14:42.464Z,2.27
2023-02-19T19:17:09.012Z,2.27
2023-02-19T19:19:35.732Z,2.26
2023-02-19T19:22:02.270Z,2.25
2023-02-19T19:24:28.825Z,2.24
2023-02-19T19:26:55.449Z,2.24
2023-02-19T19:29:22.529Z,2.23
2023-02-19T19:31:49.751Z,2.23
2023-02-19T19:34:16.485Z,2.22
2023-02-19T19:36:43.681Z,2.23
2023-02-19T19:39:10.526Z,2.21
2023-02-19T19:41:37.029Z,2.19
2023-02-19T19:44:08.376Z,2.19
2023-02-19T19:46:35.964Z,2.19
2023-02-19T19:49:02.665Z,2.21
2023-02-19T19:51:33.848Z,2.19
2023-02-19T19:54:00.823Z,2.20
2023-02-19T19:56:27.257Z,2.20
2023-02-19T19:58:54.107Z,2.20
2023-02-19T20:01:21.611Z,2.18
2023-02-19T20:03:48.413Z,2.15
2023-02-19T20:06:15.268Z,2.13
2023-02-19T20:08:41.766Z,2.11
2023-02-19T20:11:08.812Z,2.09
2023-02-19T20:13:35.501Z,2.09
2023-02-19T20:16:02.016Z,2.08
2023-02-19T20:18:28.680Z,2.09
2023-02-19T20:20:55.378Z,2.08
2023-02-19T20:23:22.174Z,2.09
2023-02-19T20:25:49.228Z,2.09
2023-02-19T20:28:18.785Z,2.07
2023-02-19T20:30:45.305Z,2.05
2023-02-19T20:33:12.366Z,2.03
2023-02-19T20:35:38.958Z,1.99
2023-02-19T20:38:05.387Z,1.95
2023-02-19T20:40:32.143Z,1.90
2023-02-19T20:42:58.901Z,1.94
2023-02-19T20:45:25.361Z,1.96
2023-02-19T20:47:52.003Z,1.96
2023-02-19T20:50:19.132Z,1.96
2023-02-19T20:52:46.512Z,1.97
2023-02-19T20:55:13.028Z,2.01
2023-02-19T20:57:39.803Z,1.99
2023-02-19T21:00:08.384Z,1.98
2023-02-19T21:02:35.173Z,1.95
2023-02-19T21:05:01.824Z,1.90
2023-02-19T21:07:28.618Z,1.88
2023-02-19T21:09:55.166Z,1.86
2023-02-19T21:12:22.408Z,1.83
2023-02-19T21:14:49.047Z,1.81
2023-02-19T21:17:15.721Z,1.81
2023-02-19T21:19:42.186Z,1.80
2023-02-19T21:22:08.769Z,1.80
2023-02-19T21:24:35.186Z,1.81
2023-02-19T21:27:01.708Z,1.78
2023-02-19T21:29:28.501Z,1.75
2023-02-19T21:31:57.133Z,1.76
2023-02-19T21:34:29.081Z,1.76
2023-02-19T21:36:56.613Z,1.75
2023-02-19T21:39:26.706Z,1.72
2023-02-19T21:41:53.694Z,1.71
2023-02-19T21:44:20.668Z,1.69
2023-02-19T21:46:47.899Z,1.70
2023-02-19T21:49:14.571Z,1.72
2023-02-19T21:51:43.241Z,1.71
2023-02-19T21:54:15.980Z,1.70
2023-02-19T21:56:42.801Z,1.69
2023-02-19T21:59:09.335Z,1.65
2023-02-19T22:01:37.745Z,1.65
2023-02-19T22:04:05.969Z,1.62
2023-02-19T22:06:33.000Z,1.57
2023-02-19T22:09:00.021Z,1.52
2023-02-19T22:11:26.826Z,1.47
2023-02-19T22:13:53.986Z,1.41
2023-02-19T22:16:21.187Z,1.37
2023-02-19T22:18:53.731Z,1.32
2023-02-19T22:21:21.652Z,1.29
2023-02-19T22:23:50.198Z,1.25
2023-02-19T22:26:29.225Z,1.21
2023-02-19T22:28:56.274Z,1.14
2023-02-19T22:31:24.904Z,1.09
2023-02-19T22:33:52.416Z,1.11
2023-02-19T22:36:24.384Z,1.10
2023-02-19T22:38:50.912Z,1.09
2023-02-19T22:41:19.098Z,1.07
2023-02-19T22:43:46.162Z,1.04
2023-02-19T22:46:24.927Z,1.02
2023-02-19T22:48:51.743Z,0.98
2023-02-19T22:51:21.290Z,0.94
2023-02-19T22:53:50.160Z,0.93
2023-02-19T22:56:18.315Z,0.93
2023-02-19T22:58:45.468Z,0.93
2023-02-19T23:01:16.169Z,0.94
2023-02-19T23:03:49.871Z,0.94
2023-02-19T23:06:27.957Z,0.98
2023-02-19T23:08:56.782Z,0.98
2023-02-19T23:11:28.993Z,0.98
2023-02-19T23:13:57.062Z,0.97
2023-02-19T23:16:23.816Z,0.97
2023-02-19T23:18:51.104Z,0.99
2023-02-19T23:21:19.201Z,1.00
2023-02-19T23:23:46.630Z,1.00
2023-02-19T23:26:14.793Z,0.98
2023-02-19T23:28:45.419Z,1.01
2023-02-19T23:31:13.323Z,1.07
2023-02-19T23:33:40.421Z,1.07
2023-02-19T23:36:08.085Z,1.07
2023-02-19T23:38:35.284Z,1.04
2023-02-19T23:41:02.336Z,1.03
2023-02-19T23:43:29.486Z,1.02
2023-02-19T23:45:56.070Z,0.99
2023-02-19T23:48:22.773Z,0.95
2023-02-19T23:50:49.309Z,0.94
2023-02-19T23:53:15.877Z,0.95
2023-02-19T23:55:42.605Z,0.95
2023-02-19T23:58:09.147Z,0.95
